createdAt,value
2024-02-19T00:01:12.484Z,2.70
2024-02-19T00:03:48.940Z,1.60
2024-02-19T00:06:16.988Z,3.10
2024-02-19T00:08:44.991Z,1.50
2024-02-19T00:11:14.930Z,1.70
2024-02-19T00:13:42.952Z,2.40
2024-02-19T00:16:11.765Z,1.00
2024-02-19T00:18:40.229Z,1.90
2024-02-19T00:21:08.592Z,5.00
2024-02-19T00:23:37.080Z,1.40
2024-02-19T00:26:05.318Z,3.10
2024-02-19T00:28:33.670Z,1.00
2024-02-19T00:31:03.229Z,2.20
2024-02-19T00:33:33.988Z,3.00
2024-02-19T00:36:03.057Z,2.90
2024-02-19T00:38:31.296Z,2.10
2024-02-19T00:41:00.890Z,2.50
2024-02-19T00:43:29.162Z,2.50
2024-02-19T00:45:57.374Z,2.30
2024-02-19T00:48:26.455Z,1.80
2024-02-19T00:50:54.522Z,4.00
2024-02-19T00:53:22.377Z,2.00
2024-02-19T00:55:53.696Z,2.30
2024-02-19T00:58:22.248Z,2.50
2024-02-19T01:00:51.074Z,2.70
2024-02-19T01:03:19.234Z,2.40
2024-02-19T01:05:47.311Z,2.50
2024-02-19T01:08:15.698Z,2.60
2024-02-19T01:10:43.904Z,3.70
2024-02-19T01:13:12.087Z,4.20
2024-02-19T01:15:40.320Z,3.10
2024-02-19T01:18:09.387Z,2.40
2024-02-19T01:20:37.729Z,2.00
2024-02-19T01:23:06.189Z,1.90
2024-02-19T01:25:37.316Z,2.40
2024-02-19T01:28:06.118Z,2.80
2024-02-19T01:30:36.706Z,2.20
2024-02-19T01:33:06.720Z,2.20
2024-02-19T01:35:35.022Z,2.80
2024-02-19T01:38:02.973Z,2.50
2024-02-19T01:40:32.478Z,2.30
2024-02-19T01:43:07.738Z,1.70
2024-02-19T01:45:35.836Z,5.00
2024-02-19T01:48:04.885Z,2.30
2024-02-19T01:50:36.457Z,3.00
2024-02-19T01:53:09.408Z,4.10
2024-02-19T01:55:39.802Z,2.30
2024-02-19T01:58:08.776Z,2.30
2024-02-19T02:00:38.000Z,2.50
2024-02-19T02:03:06.824Z,2.20
2024-02-19T02:05:36.278Z,2.80
2024-02-19T02:08:07.694Z,3.10
2024-02-19T02:10:35.913Z,2.50
2024-02-19T02:13:04.217Z,2.00
2024-02-19T02:15:32.344Z,3.30
2024-02-19T02:18:00.297Z,3.00
2024-02-19T02:20:28.731Z,2.60
2024-02-19T02:22:58.825Z,2.30
2024-02-19T02:25:27.157Z,2.50
2024-02-19T02:27:55.123Z,5.70
2024-02-19T02:30:23.042Z,4.90
2024-02-19T02:32:54.554Z,3.20
2024-02-19T02:35:26.634Z,2.40
2024-02-19T02:37:55.560Z,2.10
2024-02-19T02:40:24.140Z,1.30
2024-02-19T02:42:52.781Z,1.40
2024-02-19T02:45:21.690Z,2.30
2024-02-19T02:47:49.951Z,2.40
2024-02-19T02:50:18.104Z,1.90
2024-02-19T02:52:46.053Z,1.60
2024-02-19T02:55:14.610Z,2.70
2024-02-19T02:57:42.835Z,1.40
2024-02-19T03:00:12.580Z,1.70
2024-02-19T03:02:40.559Z,2.10
2024-02-19T03:05:09.409Z,1.80
2024-02-19T03:07:38.673Z,2.60
2024-02-19T03:10:07.549Z,2.10
2024-02-19T03:12:36.576Z,1.90
2024-02-19T03:15:07.111Z,2.50
2024-02-19T03:17:35.442Z,2.00
2024-02-19T03:20:06.349Z,2.10
2024-02-19T03:22:34.406Z,2.30
2024-02-19T03:25:02.705Z,1.90
2024-02-19T03:27:30.912Z,3.10
2024-02-19T03:29:58.812Z,1.90
2024-02-19T03:32:27.134Z,2.00
2024-02-19T03:34:59.279Z,2.00
2024-02-19T03:37:27.748Z,1.70
2024-02-19T03:39:55.719Z,1.80
2024-02-19T03:42:24.785Z,1.80
2024-02-19T03:44:53.013Z,2.60
2024-02-19T03:47:21.052Z,2.70
2024-02-19T03:49:51.595Z,2.20
2024-02-19T03:52:20.747Z,4.80
2024-02-19T03:54:49.373Z,2.20
2024-02-19T03:57:17.801Z,3.20
2024-02-19T03:59:45.718Z,2.50
2024-02-19T04:02:16.054Z,2.40
2024-02-19T04:04:44.174Z,3.10
2024-02-19T04:07:12.639Z,2.90
2024-02-19T04:09:41.261Z,2.50
2024-02-19T04:12:10.367Z,2.00
2024-02-19T04:14:44.131Z,2.40
2024-02-19T04:17:13.069Z,1.40
2024-02-19T04:19:44.180Z,3.00
2024-02-19T04:22:12.272Z,2.90
2024-02-19T04:24:40.507Z,5.30
2024-02-19T04:27:08.388Z,6.40
2024-02-19T04:29:36.559Z,4.40
2024-02-19T04:32:05.865Z,7.80
2024-02-19T04:34:37.394Z,3.70
2024-02-19T04:37:09.268Z,2.30
2024-02-19T04:39:37.533Z,3.20
2024-02-19T04:42:05.923Z,5.30
2024-02-19T04:44:35.555Z,3.10
2024-02-19T04:47:04.100Z,2.90
2024-02-19T04:49:32.699Z,1.90
2024-02-19T04:52:01.684Z,2.40
2024-02-19T04:54:29.905Z,2.90
2024-02-19T04:56:58.291Z,2.10
2024-02-19T04:59:26.240Z,3.60
2024-02-19T05:01:55.030Z,2.30
2024-02-19T05:04:24.684Z,4.00
2024-02-19T05:06:52.887Z,2.10
2024-02-19T05:09:22.443Z,2.00
2024-02-19T05:11:51.189Z,2.90
2024-02-19T05:14:19.135Z,4.00
2024-02-19T05:16:50.273Z,2.00
2024-02-19T05:19:18.377Z,6.10
2024-02-19T05:21:46.879Z,4.00
2024-02-19T05:24:16.527Z,2.20
2024-02-19T05:26:45.297Z,1.70
2024-02-19T05:29:13.362Z,2.70
2024-02-19T05:31:41.958Z,3.60
2024-02-19T05:34:11.546Z,2.50
2024-02-19T05:36:39.849Z,2.30
2024-02-19T05:39:12.124Z,2.60
2024-02-19T05:41:40.796Z,4.50
2024-02-19T05:44:09.692Z,2.30
2024-02-19T05:46:37.773Z,3.10
2024-02-19T05:49:06.163Z,3.30
2024-02-19T05:51:34.249Z,6.30
2024-02-19T05:54:02.406Z,4.60
2024-02-19T05:56:31.402Z,2.60
2024-02-19T05:58:59.363Z,5.50
2024-02-19T06:01:27.480Z,5.70
2024-02-19T06:03:55.976Z,4.00
2024-02-19T06:06:24.188Z,2.90
2024-02-19T06:08:52.356Z,3.40
2024-02-19T06:11:22.420Z,2.50
2024-02-19T06:13:50.464Z,3.30
2024-02-19T06:16:18.644Z,3.70
2024-02-19T06:18:49.364Z,2.70
2024-02-19T06:21:17.666Z,2.10
2024-02-19T06:23:45.521Z,2.40
2024-02-19T06:26:13.938Z,2.90
2024-02-19T06:28:43.315Z,3.40
2024-02-19T06:31:11.277Z,5.10
2024-02-19T06:33:39.667Z,4.10
2024-02-19T06:36:09.444Z,3.50
2024-02-19T06:38:37.368Z,3.30
2024-02-19T06:41:05.896Z,2.70
2024-02-19T06:43:33.912Z,4.60
2024-02-19T06:46:02.040Z,4.30
2024-02-19T06:48:34.490Z,5.00
2024-02-19T06:51:05.605Z,4.80
2024-02-19T06:53:34.245Z,2.70
2024-02-19T06:56:02.400Z,2.90
2024-02-19T06:58:30.565Z,2.60
2024-02-19T07:00:58.694Z,3.20
2024-02-19T07:03:26.948Z,3.70
2024-02-19T07:05:55.216Z,3.20
2024-02-19T07:08:23.398Z,2.60
2024-02-19T07:10:51.321Z,2.30
2024-02-19T07:13:19.621Z,2.00
2024-02-19T07:15:47.820Z,2.50
2024-02-19T07:18:15.861Z,2.70
2024-02-19T07:20:43.928Z,2.70
2024-02-19T07:23:11.852Z,2.80
2024-02-19T07:25:40.293Z,3.00
2024-02-19T07:28:08.899Z,2.80
2024-02-19T07:30:38.657Z,3.20
2024-02-19T07:33:06.996Z,3.90
2024-02-19T07:35:35.258Z,4.10
2024-02-19T07:38:03.282Z,4.30
2024-02-19T07:40:35.303Z,4.10
2024-02-19T07:43:04.237Z,3.50
2024-02-19T07:45:32.348Z,5.40
2024-02-19T07:48:02.140Z,4.30
2024-02-19T07:50:30.159Z,3.60
2024-02-19T07:52:58.209Z,3.40
2024-02-19T07:55:26.647Z,2.60
2024-02-19T07:57:56.182Z,3.30
2024-02-19T08:00:24.369Z,5.30
2024-02-19T08:02:52.295Z,4.10
2024-02-19T08:05:20.418Z,3.60
2024-02-19T08:07:49.617Z,5.70
2024-02-19T08:10:17.640Z,6.00
2024-02-19T08:12:45.856Z,3.60
2024-02-19T08:15:13.961Z,5.00
2024-02-19T08:17:51.206Z,3.90
2024-02-19T08:20:19.413Z,4.50
2024-02-19T08:22:47.539Z,4.00
2024-02-19T08:25:16.266Z,3.70
2024-02-19T08:27:46.661Z,3.50
2024-02-19T08:30:14.955Z,5.20
2024-02-19T08:32:43.164Z,4.40
2024-02-19T08:35:11.551Z,3.60
2024-02-19T08:37:39.696Z,4.20
2024-02-19T08:40:09.316Z,5.50
2024-02-19T08:42:38.501Z,3.80
2024-02-19T08:45:07.604Z,4.00
2024-02-19T08:47:36.082Z,10.50
2024-02-19T08:50:06.013Z,11.60
2024-02-19T08:52:34.171Z,3.30
2024-02-19T08:55:02.855Z,4.60
2024-02-19T08:57:30.894Z,3.70
2024-02-19T08:59:58.901Z,3.00
2024-02-19T09:02:27.316Z,4.10
2024-02-19T09:04:55.603Z,7.40
2024-02-19T09:07:26.499Z,4.00
2024-02-19T09:09:54.634Z,3.70
2024-02-19T09:12:24.655Z,5.90
2024-02-19T09:14:56.637Z,4.00
2024-02-19T09:17:26.380Z,2.80
2024-02-19T09:19:54.442Z,4.00
2024-02-19T09:22:22.583Z,2.90
2024-02-19T09:24:51.741Z,2.50
2024-02-19T09:27:19.859Z,2.30
2024-02-19T09:29:48.142Z,2.40
2024-02-19T09:32:16.014Z,3.80
2024-02-19T09:34:44.123Z,3.30
2024-02-19T09:37:13.223Z,3.30
2024-02-19T09:39:42.130Z,3.60
2024-02-19T09:42:10.877Z,3.30
2024-02-19T09:44:39.217Z,3.80
2024-02-19T09:47:08.604Z,3.40
2024-02-19T09:49:38.812Z,2.10
2024-02-19T09:52:10.640Z,3.00
2024-02-19T09:54:38.834Z,3.60
2024-02-19T09:57:11.726Z,2.30
2024-02-19T09:59:44.140Z,2.20
2024-02-19T10:02:20.067Z,3.90
2024-02-19T10:04:49.775Z,2.80
2024-02-19T10:07:21.831Z,3.80
2024-02-19T10:09:51.113Z,2.90
2024-02-19T10:12:20.744Z,2.60
2024-02-19T10:14:49.047Z,2.20
2024-02-19T10:17:30.708Z,2.10
2024-02-19T10:20:06.393Z,2.60
2024-02-19T10:22:34.928Z,2.80
2024-02-19T10:25:05.282Z,1.80
2024-02-19T10:27:33.210Z,2.20
2024-02-19T10:30:02.350Z,3.70
2024-02-19T10:32:31.330Z,1.60
2024-02-19T10:34:59.374Z,6.00
2024-02-19T10:37:27.423Z,2.60
2024-02-19T10:39:55.925Z,2.80
2024-02-19T10:42:24.291Z,2.70
2024-02-19T10:44:55.371Z,3.40
2024-02-19T10:47:25.938Z,6.10
2024-02-19T10:50:00.501Z,2.20
2024-02-19T10:52:32.676Z,2.90
2024-02-19T10:55:10.794Z,3.00
2024-02-19T10:57:50.731Z,2.60
2024-02-19T11:00:26.567Z,2.50
2024-02-19T11:03:09.400Z,2.60
2024-02-19T11:05:45.998Z,3.70
2024-02-19T11:08:23.824Z,2.10
2024-02-19T11:10:56.965Z,3.20
2024-02-19T11:13:28.659Z,2.00
2024-02-19T11:15:56.985Z,3.00
2024-02-19T11:18:24.992Z,2.40
2024-02-19T11:20:52.907Z,6.30
2024-02-19T11:23:21.876Z,3.10
2024-02-19T11:25:50.004Z,3.10
2024-02-19T11:28:18.553Z,2.10
2024-02-19T11:30:47.119Z,2.50
2024-02-19T11:33:15.275Z,2.20
2024-02-19T11:35:44.776Z,2.60
2024-02-19T11:38:12.834Z,3.10
2024-02-19T11:40:41.002Z,3.10
2024-02-19T11:43:10.169Z,2.60
2024-02-19T11:45:39.264Z,3.50
2024-02-19T11:48:08.806Z,3.60
2024-02-19T11:50:36.895Z,4.00
2024-02-19T11:53:05.730Z,2.70
2024-02-19T11:55:35.232Z,4.40
2024-02-19T11:58:07.036Z,2.80
2024-02-19T12:00:37.594Z,1.90
2024-02-19T12:03:06.230Z,3.70
2024-02-19T12:05:34.398Z,3.70
2024-02-19T12:08:02.641Z,2.60
2024-02-19T12:10:32.883Z,1.80
2024-02-19T12:13:01.312Z,3.70
2024-02-19T12:15:30.214Z,4.20
2024-02-19T12:17:58.350Z,3.90
2024-02-19T12:20:26.607Z,1.90
2024-02-19T12:22:55.163Z,1.90
2024-02-19T12:25:25.461Z,2.30
2024-02-19T12:27:53.855Z,8.10
2024-02-19T12:30:23.902Z,2.30
2024-02-19T12:32:55.246Z,2.90
2024-02-19T12:35:23.569Z,7.00
2024-02-19T12:37:51.986Z,2.80
2024-02-19T12:40:20.113Z,2.70
2024-02-19T12:42:48.489Z,2.30
2024-02-19T12:45:18.797Z,2.80
2024-02-19T12:47:48.428Z,3.50
2024-02-19T12:50:17.238Z,5.00
2024-02-19T12:52:45.765Z,2.30
2024-02-19T12:55:16.708Z,2.50
2024-02-19T12:57:47.738Z,2.60
2024-02-19T13:00:16.233Z,5.50
2024-02-19T13:02:44.325Z,4.40
2024-02-19T13:05:12.489Z,3.60
2024-02-19T13:07:43.720Z,4.00
2024-02-19T13:10:11.939Z,3.00
2024-02-19T13:12:40.644Z,3.50
2024-02-19T13:15:08.964Z,4.60
2024-02-19T13:17:43.134Z,4.10
2024-02-19T13:20:16.705Z,2.90
2024-02-19T13:22:45.902Z,3.50
2024-02-19T13:25:15.793Z,4.90
2024-02-19T13:27:46.310Z,3.10
2024-02-19T13:30:15.340Z,2.60
2024-02-19T13:32:47.926Z,2.30
2024-02-19T13:35:21.604Z,2.90
2024-02-19T13:37:51.684Z,4.40
2024-02-19T13:40:21.702Z,3.00
2024-02-19T13:42:50.206Z,4.40
2024-02-19T13:45:24.661Z,1.60
2024-02-19T13:48:02.029Z,2.30
2024-02-19T13:50:31.071Z,3.90
2024-02-19T13:52:59.232Z,4.60
2024-02-19T13:55:27.859Z,5.90
2024-02-19T13:57:55.935Z,5.50
2024-02-19T14:00:24.714Z,5.60
2024-02-19T14:02:52.778Z,4.40
2024-02-19T14:05:21.532Z,3.00
2024-02-19T14:07:50.826Z,3.40
2024-02-19T14:10:19.083Z,3.00
2024-02-19T14:12:47.190Z,4.10
2024-02-19T14:15:15.307Z,2.10
2024-02-19T14:17:44.424Z,2.90
2024-02-19T14:20:12.773Z,3.70
2024-02-19T14:22:41.227Z,4.20
2024-02-19T14:25:12.691Z,5.20
2024-02-19T14:27:43.491Z,2.30
2024-02-19T14:30:14.084Z,2.00
2024-02-19T14:32:44.605Z,2.60
2024-02-19T14:35:14.784Z,4.30
2024-02-19T14:37:46.092Z,5.60
2024-02-19T14:40:15.161Z,5.80
2024-02-19T14:42:45.689Z,2.50
2024-02-19T14:45:15.133Z,4.70
2024-02-19T14:47:46.817Z,5.30
2024-02-19T14:50:16.740Z,3.20
2024-02-19T14:52:45.370Z,3.40
2024-02-19T14:55:33.922Z,10.40
2024-02-19T14:58:03.477Z,6.70
2024-02-19T15:00:36.521Z,9.90
2024-02-19T15:03:11.340Z,4.20
2024-02-19T15:05:41.380Z,2.50
2024-02-19T15:08:09.657Z,2.30
2024-02-19T15:10:37.738Z,3.50
2024-02-19T15:13:05.853Z,6.70
2024-02-19T15:15:34.936Z,3.90
2024-02-19T15:18:05.681Z,3.70
2024-02-19T15:20:33.896Z,5.10
2024-02-19T15:23:04.363Z,3.00
2024-02-19T15:25:32.286Z,5.60
2024-02-19T15:28:00.373Z,2.50
2024-02-19T15:30:29.525Z,3.90
2024-02-19T15:33:00.049Z,3.30
2024-02-19T15:35:29.697Z,3.90
2024-02-19T15:37:58.092Z,3.50
2024-02-19T15:40:27.141Z,2.20
2024-02-19T15:42:55.794Z,5.30
2024-02-19T15:45:24.554Z,3.80
2024-02-19T15:47:53.620Z,4.30
2024-02-19T15:50:22.649Z,7.00
2024-02-19T15:52:58.343Z,3.00
2024-02-19T15:55:33.049Z,3.30
2024-02-19T15:58:01.481Z,9.10
2024-02-19T16:00:31.168Z,2.80
2024-02-19T16:02:59.681Z,5.80
2024-02-19T16:05:27.977Z,6.40
2024-02-19T16:08:01.943Z,7.80
2024-02-19T16:10:29.993Z,9.90
2024-02-19T16:12:59.586Z,9.70
2024-02-19T16:15:27.549Z,8.80
2024-02-19T16:17:56.152Z,10.70
2024-02-19T16:20:25.417Z,10.70
2024-02-19T16:22:56.165Z,8.50
2024-02-19T16:25:24.297Z,19.00
2024-02-19T16:27:52.810Z,17.90
2024-02-19T16:30:21.262Z,10.20
2024-02-19T16:32:52.073Z,11.10
2024-02-19T16:35:20.602Z,52.50
2024-02-19T16:37:49.251Z,74.90
2024-02-19T16:40:21.269Z,24.70
2024-02-19T16:42:49.494Z,42.70
2024-02-19T16:45:17.498Z,42.00
2024-02-19T16:47:45.782Z,36.80
2024-02-19T16:50:13.739Z,30.50
2024-02-19T16:52:41.940Z,28.40
2024-02-19T16:55:10.188Z,19.30
2024-02-19T16:57:39.596Z,21.40
2024-02-19T17:00:08.920Z,15.80
2024-02-19T17:02:36.914Z,7.20
2024-02-19T17:05:06.678Z,5.30
2024-02-19T17:07:35.162Z,6.00
2024-02-19T17:10:07.332Z,9.70
2024-02-19T17:12:35.207Z,14.30
2024-02-19T17:15:03.945Z,11.90
2024-02-19T17:17:32.812Z,10.30
2024-02-19T17:20:01.047Z,11.40
2024-02-19T17:22:29.575Z,9.80
2024-02-19T17:24:58.860Z,8.90
2024-02-19T17:27:27.035Z,11.40
2024-02-19T17:29:56.670Z,4.30
2024-02-19T17:32:24.651Z,7.40
2024-02-19T17:34:53.516Z,6.70
2024-02-19T17:37:22.126Z,12.70
2024-02-19T17:39:51.064Z,12.10
2024-02-19T17:42:23.229Z,11.60
2024-02-19T17:44:51.552Z,14.20
2024-02-19T17:47:22.119Z,10.80
2024-02-19T17:49:52.903Z,8.70
2024-02-19T17:52:20.959Z,11.00
2024-02-19T17:54:49.081Z,9.40
2024-02-19T17:57:17.145Z,9.30
2024-02-19T17:59:46.419Z,9.70
2024-02-19T18:02:14.568Z,10.80
2024-02-19T18:04:47.982Z,18.30
2024-02-19T18:07:15.925Z,14.50
2024-02-19T18:09:43.917Z,13.90
2024-02-19T18:12:12.109Z,12.50
2024-02-19T18:14:39.975Z,14.50
2024-02-19T18:17:08.597Z,12.10
2024-02-19T18:19:36.977Z,10.80
2024-02-19T18:22:06.398Z,16.70
2024-02-19T18:24:34.851Z,27.10
2024-02-19T18:27:03.296Z,14.40
2024-02-19T18:29:34.089Z,12.90
2024-02-19T18:32:03.105Z,9.00
2024-02-19T18:34:35.859Z,8.60
2024-02-19T18:37:05.555Z,13.00
2024-02-19T18:39:33.617Z,13.10
2024-02-19T18:42:01.827Z,18.50
2024-02-19T18:44:29.653Z,14.20
2024-02-19T18:47:00.157Z,9.80
2024-02-19T18:49:33.221Z,13.50
2024-02-19T18:52:03.118Z,13.80
2024-02-19T18:54:32.930Z,13.00
2024-02-19T18:57:02.414Z,13.10
2024-02-19T18:59:33.218Z,12.00
2024-02-19T19:02:05.556Z,16.00
2024-02-19T19:04:35.481Z,10.60
2024-02-19T19:07:03.983Z,10.50
2024-02-19T19:09:37.372Z,13.80
2024-02-19T19:12:07.821Z,9.80
2024-02-19T19:14:38.314Z,13.00
2024-02-19T19:17:11.359Z,13.90
2024-02-19T19:19:39.990Z,20.80
2024-02-19T19:22:08.681Z,14.70
2024-02-19T19:24:37.081Z,18.00
2024-02-19T19:27:06.777Z,15.50
2024-02-19T19:29:35.141Z,14.40
2024-02-19T19:32:03.509Z,19.50
2024-02-19T19:34:32.228Z,17.60
2024-02-19T19:37:01.982Z,15.60
2024-02-19T19:39:30.086Z,15.80
2024-02-19T19:41:58.180Z,14.60
2024-02-19T19:44:26.689Z,15.70
2024-02-19T19:46:57.693Z,21.50
2024-02-19T19:49:25.738Z,17.70
2024-02-19T19:51:53.771Z,19.40
2024-02-19T19:54:21.774Z,20.40
2024-02-19T19:56:50.128Z,23.00
2024-02-19T19:59:19.502Z,26.90
2024-02-19T20:01:47.514Z,29.20
2024-02-19T20:04:15.769Z,41.20
2024-02-19T20:06:44.152Z,59.10
2024-02-19T20:09:12.473Z,36.70
2024-02-19T20:11:40.523Z,23.80
2024-02-19T20:14:08.727Z,19.00
2024-02-19T20:16:42.081Z,18.80
2024-02-19T20:19:10.332Z,19.10
2024-02-19T20:21:38.400Z,25.60
2024-02-19T20:24:08.509Z,20.20
2024-02-19T20:26:41.234Z,21.10
2024-02-19T20:29:11.812Z,19.90
2024-02-19T20:31:40.151Z,11.00
2024-02-19T20:34:08.680Z,12.80
2024-02-19T20:36:39.333Z,13.00
2024-02-19T20:39:10.293Z,10.20
2024-02-19T20:41:44.792Z,29.70
2024-02-19T20:44:14.637Z,22.30
2024-02-19T20:46:44.633Z,24.30
2024-02-19T20:49:15.463Z,22.40
2024-02-19T20:51:43.783Z,19.30
2024-02-19T20:54:12.294Z,14.80
2024-02-19T20:56:44.528Z,17.40
2024-02-19T20:59:12.568Z,15.50
2024-02-19T21:01:42.940Z,14.70
2024-02-19T21:04:11.126Z,11.50
2024-02-19T21:06:40.890Z,12.50
2024-02-19T21:09:12.133Z,11.20
2024-02-19T21:11:42.541Z,17.10
2024-02-19T21:14:14.553Z,20.60
2024-02-19T21:16:47.036Z,21.40
2024-02-19T21:19:16.346Z,42.60
2024-02-19T21:21:44.407Z,26.70
2024-02-19T21:24:12.438Z,32.10
2024-02-19T21:26:42.830Z,31.00
2024-02-19T21:29:11.055Z,31.20
2024-02-19T21:31:41.249Z,21.80
2024-02-19T21:34:12.753Z,23.10
2024-02-19T21:36:41.539Z,20.10
2024-02-19T21:39:10.858Z,9.60
2024-02-19T21:41:39.153Z,13.30
2024-02-19T21:44:07.711Z,17.00
2024-02-19T21:46:37.079Z,23.30
2024-02-19T21:49:05.507Z,19.00
2024-02-19T21:51:33.628Z,18.50
2024-02-19T21:54:01.603Z,18.80
2024-02-19T21:56:29.829Z,16.50
2024-02-19T21:58:57.714Z,18.60
2024-02-19T22:01:26.194Z,17.00
2024-02-19T22:03:54.417Z,23.20
2024-02-19T22:06:22.546Z,27.60
2024-02-19T22:08:52.476Z,20.30
2024-02-19T22:11:21.063Z,21.80
2024-02-19T22:13:50.850Z,20.50
2024-02-19T22:16:19.252Z,18.10
2024-02-19T22:18:49.020Z,13.60
2024-02-19T22:21:17.218Z,10.30
2024-02-19T22:23:46.619Z,10.90
2024-02-19T22:26:14.567Z,9.00
2024-02-19T22:28:42.717Z,12.80
2024-02-19T22:31:10.836Z,9.30
2024-02-19T22:33:39.077Z,13.30
2024-02-19T22:36:07.233Z,12.30
2024-02-19T22:38:35.135Z,16.20
2024-02-19T22:41:07.872Z,18.10
2024-02-19T22:43:36.243Z,17.90
2024-02-19T22:46:05.227Z,19.70
2024-02-19T22:48:33.310Z,17.00
2024-02-19T22:51:01.405Z,17.80
2024-02-19T22:53:29.296Z,16.00
2024-02-19T22:55:57.521Z,11.50
2024-02-19T22:58:32.689Z,12.50
2024-02-19T23:01:05.895Z,15.40
2024-02-19T23:03:34.078Z,14.20
2024-02-19T23:06:02.154Z,14.20
2024-02-19T23:08:30.598Z,12.10
2024-02-19T23:10:58.875Z,16.90
2024-02-19T23:13:27.060Z,14.50
2024-02-19T23:15:56.044Z,13.40
2024-02-19T23:18:24.850Z,13.40
2024-02-19T23:20:53.690Z,15.00
2024-02-19T23:23:21.675Z,14.70
2024-02-19T23:25:54.119Z,23.60
2024-02-19T23:28:24.969Z,25.00
2024-02-19T23:30:54.919Z,16.80
2024-02-19T23:33:23.116Z,48.50
2024-02-19T23:35:51.020Z,49.30
2024-02-19T23:38:24.669Z,39.00
2024-02-19T23:40:53.328Z,23.00
2024-02-19T23:43:22.010Z,25.10
2024-02-19T23:45:50.264Z,22.30
2024-02-19T23:48:18.329Z,27.90
2024-02-19T23:50:48.592Z,15.50
2024-02-19T23:53:16.788Z,17.60
2024-02-19T23:55:44.892Z,21.30
2024-02-19T23:58:13.590Z,19.10
